createdAt,value
2019-02-26T00:02:21.958Z,84.40
2019-02-26T00:04:54.785Z,82.80
2019-02-26T00:07:27.536Z,93.90
2019-02-26T00:09:59.473Z,84.37
2019-02-26T00:12:31.117Z,83.40
2019-02-26T00:15:02.526Z,91.90
2019-02-26T00:17:36.244Z,87.47
2019-02-26T00:20:07.880Z,83.47
2019-02-26T00:22:39.041Z,84.67
2019-02-26T00:25:10.907Z,83.70
2019-02-26T00:27:42.248Z,81.87
2019-02-26T00:30:14.365Z,79.30
2019-02-26T00:32:44.640Z,79.07
2019-02-26T00:35:16.066Z,78.73
2019-02-26T00:37:49.381Z,75.50
2019-02-26T00:40:20.255Z,78.27
2019-02-26T00:42:54.354Z,74.00
2019-02-26T00:45:26.976Z,68.43
2019-02-26T00:47:55.246Z,69.20
2019-02-26T00:50:25.634Z,70.77
2019-02-26T00:52:57.095Z,70.27
2019-02-26T00:55:29.850Z,65.97
2019-02-26T00:58:01.107Z,63.93
2019-02-26T01:00:33.207Z,63.17
2019-02-26T01:03:06.079Z,63.40
2019-02-26T01:05:38.534Z,62.43
2019-02-26T01:08:12.750Z,64.63
2019-02-26T01:10:41.595Z,67.50
2019-02-26T01:13:12.951Z,55.20
2019-02-26T01:15:43.366Z,59.03
2019-02-26T01:18:13.866Z,57.60
2019-02-26T01:20:44.218Z,54.00
2019-02-26T01:23:16.336Z,50.93
2019-02-26T01:25:46.522Z,52.70
2019-02-26T01:28:18.642Z,51.67
2019-02-26T01:30:53.642Z,46.77
2019-02-26T01:33:22.334Z,45.40
2019-02-26T01:35:55.390Z,46.83
2019-02-26T01:38:25.141Z,46.83
2019-02-26T01:40:56.047Z,44.27
2019-02-26T01:43:26.595Z,43.87
2019-02-26T01:45:57.158Z,45.97
2019-02-26T01:48:27.626Z,45.73
2019-02-26T01:50:59.165Z,41.83
2019-02-26T01:53:30.809Z,42.13
2019-02-26T01:56:04.536Z,45.40
2019-02-26T01:58:34.512Z,45.23
2019-02-26T02:01:04.936Z,41.13
2019-02-26T02:03:35.310Z,43.63
2019-02-26T02:06:06.253Z,39.20
2019-02-26T02:08:41.318Z,42.50
2019-02-26T02:11:11.104Z,42.63
2019-02-26T02:13:43.780Z,39.10
2019-02-26T02:16:13.798Z,38.20
2019-02-26T02:18:48.139Z,37.43
2019-02-26T02:21:16.588Z,39.67
2019-02-26T02:23:48.665Z,37.63
2019-02-26T02:26:19.026Z,37.17
2019-02-26T02:28:49.403Z,33.90
2019-02-26T02:31:22.045Z,35.47
2019-02-26T02:33:52.028Z,39.03
2019-02-26T02:36:26.114Z,38.40
2019-02-26T02:38:55.697Z,36.67
2019-02-26T02:41:26.110Z,40.73
2019-02-26T02:43:56.454Z,39.07
2019-02-26T02:46:26.869Z,36.43
2019-02-26T02:48:57.227Z,35.43
2019-02-26T02:51:28.177Z,34.93
2019-02-26T02:53:59.742Z,34.83
2019-02-26T02:56:30.837Z,33.67
2019-02-26T02:59:03.460Z,33.37
2019-02-26T03:01:34.290Z,36.83
2019-02-26T03:04:04.683Z,36.03
2019-02-26T03:06:36.093Z,33.90
2019-02-26T03:09:15.246Z,34.60
2019-02-26T03:11:46.567Z,34.00
2019-02-26T03:14:18.685Z,34.70
2019-02-26T03:16:51.391Z,33.30
2019-02-26T03:19:21.324Z,34.93
2019-02-26T03:21:52.629Z,33.37
2019-02-26T03:24:27.654Z,32.47
2019-02-26T03:26:56.189Z,33.60
2019-02-26T03:29:26.550Z,34.20
2019-02-26T03:31:57.065Z,29.47
2019-02-26T03:34:27.677Z,34.50
2019-02-26T03:36:59.948Z,34.00
2019-02-26T03:39:30.059Z,32.30
2019-02-26T03:42:01.275Z,32.23
2019-02-26T03:44:31.623Z,31.40
2019-02-26T03:47:02.257Z,31.67
2019-02-26T03:49:32.749Z,29.00
2019-02-26T03:52:03.536Z,30.43
2019-02-26T03:54:40.326Z,30.57
2019-02-26T03:57:11.452Z,31.30
2019-02-26T03:59:42.254Z,32.40
2019-02-26T04:02:14.967Z,29.50
2019-02-26T04:04:45.924Z,31.20
2019-02-26T04:07:16.834Z,31.17
2019-02-26T04:09:49.811Z,30.83
2019-02-26T04:12:20.859Z,29.63
2019-02-26T04:14:51.320Z,31.40
2019-02-26T04:17:25.463Z,32.10
2019-02-26T04:19:53.870Z,30.10
2019-02-26T04:22:34.958Z,30.10
2019-02-26T04:25:31.367Z,30.40
2019-02-26T04:28:20.099Z,28.60
2019-02-26T04:31:41.521Z,31.10
2019-02-26T04:34:38.496Z,29.43
2019-02-26T04:37:49.188Z,31.07
2019-02-26T04:40:33.026Z,30.20
2019-02-26T04:44:01.230Z,28.80
2019-02-26T04:46:53.800Z,28.47
2019-02-26T04:49:27.204Z,29.47
2019-02-26T04:51:55.805Z,32.17
2019-02-26T04:54:27.141Z,27.40
2019-02-26T04:56:58.275Z,28.30
2019-02-26T04:59:29.887Z,28.40
2019-02-26T05:02:01.023Z,28.10
2019-02-26T05:04:33.808Z,28.60
2019-02-26T05:07:05.182Z,30.13
2019-02-26T05:09:36.021Z,31.37
2019-02-26T05:12:06.476Z,28.87
2019-02-26T05:14:36.834Z,30.10
2019-02-26T05:17:07.323Z,28.37
2019-02-26T05:19:39.587Z,29.87
2019-02-26T05:22:09.770Z,28.53
2019-02-26T05:24:43.749Z,29.03
2019-02-26T05:27:16.596Z,29.93
2019-02-26T05:29:49.139Z,28.77
2019-02-26T05:32:21.833Z,29.90
2019-02-26T05:34:51.767Z,30.87
2019-02-26T05:37:22.110Z,29.00
2019-02-26T05:39:54.570Z,30.27
2019-02-26T05:42:24.925Z,31.50
2019-02-26T05:44:57.399Z,31.33
2019-02-26T05:47:27.351Z,31.43
2019-02-26T05:49:59.546Z,28.17
2019-02-26T05:52:33.159Z,28.97
2019-02-26T05:55:03.315Z,29.63
2019-02-26T05:57:33.857Z,29.27
2019-02-26T06:00:05.050Z,32.47
2019-02-26T06:02:37.405Z,31.17
2019-02-26T06:05:07.908Z,30.33
2019-02-26T06:07:38.885Z,28.40
2019-02-26T06:10:09.535Z,26.27
2019-02-26T06:12:41.503Z,27.10
2019-02-26T06:15:12.231Z,26.40
2019-02-26T06:17:43.744Z,25.63
2019-02-26T06:20:17.329Z,26.27
2019-02-26T06:22:47.755Z,26.90
2019-02-26T06:25:23.660Z,26.03
2019-02-26T06:27:50.234Z,25.17
2019-02-26T06:30:20.583Z,24.70
2019-02-26T06:32:51.037Z,25.87
2019-02-26T06:35:22.561Z,34.53
2019-02-26T06:37:53.054Z,23.33
2019-02-26T06:40:23.515Z,19.70
2019-02-26T06:42:53.905Z,20.40
2019-02-26T06:45:24.908Z,20.97
2019-02-26T06:47:56.465Z,19.73
2019-02-26T06:50:27.286Z,19.20
2019-02-26T06:52:57.675Z,22.10
2019-02-26T06:55:28.067Z,17.30
2019-02-26T06:58:21.603Z,16.33
2019-02-26T07:00:54.882Z,16.70
2019-02-26T07:03:24.788Z,15.70
2019-02-26T07:05:55.439Z,15.17
2019-02-26T07:08:28.058Z,20.00
2019-02-26T07:10:57.847Z,14.37
2019-02-26T07:13:28.177Z,13.07
2019-02-26T07:15:58.625Z,16.43
2019-02-26T07:18:29.007Z,20.40
2019-02-26T07:21:00.358Z,13.70
2019-02-26T07:23:34.559Z,15.10
2019-02-26T07:26:02.767Z,13.37
2019-02-26T07:28:33.136Z,13.57
2019-02-26T07:31:05.482Z,12.47
2019-02-26T07:33:37.115Z,12.63
2019-02-26T07:36:08.150Z,12.93
2019-02-26T07:38:41.181Z,13.73
2019-02-26T07:41:10.526Z,15.20
2019-02-26T07:43:41.775Z,14.43
2019-02-26T07:46:14.691Z,16.93
2019-02-26T07:48:46.155Z,14.00
2019-02-26T07:51:18.350Z,13.93
2019-02-26T07:53:51.155Z,12.90
2019-02-26T07:56:22.970Z,15.67
2019-02-26T07:58:57.010Z,13.20
2019-02-26T08:01:25.210Z,14.93
2019-02-26T08:03:55.833Z,15.10
2019-02-26T08:06:26.730Z,14.77
2019-02-26T08:08:58.438Z,13.70
2019-02-26T08:11:28.973Z,14.63
2019-02-26T08:14:01.526Z,14.03
2019-02-26T08:16:33.223Z,13.33
2019-02-26T08:19:03.615Z,12.70
2019-02-26T08:21:34.145Z,18.17
2019-02-26T08:24:05.358Z,13.57
2019-02-26T08:26:35.812Z,14.47
2019-02-26T08:29:07.556Z,14.13
2019-02-26T08:31:38.189Z,12.70
2019-02-26T08:34:12.625Z,15.70
2019-02-26T08:36:40.655Z,15.00
2019-02-26T08:39:14.933Z,12.83
2019-02-26T08:42:08.312Z,15.10
2019-02-26T08:47:31.867Z,13.20
2019-02-26T08:50:06.482Z,13.70
2019-02-26T08:52:34.419Z,12.13
2019-02-26T08:55:07.129Z,11.80
2019-02-26T08:57:37.502Z,17.13
2019-02-26T09:00:11.533Z,14.37
2019-02-26T09:02:43.735Z,12.83
2019-02-26T09:05:14.862Z,11.00
2019-02-26T09:07:47.435Z,10.07
2019-02-26T09:10:18.392Z,10.00
2019-02-26T09:12:51.683Z,12.37
2019-02-26T09:15:22.236Z,11.87
2019-02-26T09:17:52.667Z,12.63
2019-02-26T09:20:23.399Z,9.50
2019-02-26T09:22:56.252Z,11.77
2019-02-26T09:25:28.572Z,10.40
2019-02-26T09:27:58.067Z,12.60
2019-02-26T09:30:30.905Z,8.70
2019-02-26T09:33:00.914Z,9.67
2019-02-26T09:35:33.589Z,7.90
2019-02-26T09:38:03.916Z,12.37
2019-02-26T09:40:34.501Z,9.13
2019-02-26T09:43:06.143Z,9.63
2019-02-26T09:45:36.825Z,10.00
2019-02-26T09:48:07.267Z,11.27
2019-02-26T09:50:38.589Z,8.13
2019-02-26T09:53:10.407Z,6.63
2019-02-26T09:55:40.767Z,10.30
2019-02-26T09:58:13.444Z,8.03
2019-02-26T10:00:46.089Z,8.90
2019-02-26T10:03:16.386Z,9.83
2019-02-26T10:05:48.206Z,8.77
2019-02-26T10:08:19.979Z,12.00
2019-02-26T10:10:52.046Z,9.47
2019-02-26T10:13:25.009Z,9.87
2019-02-26T10:15:58.260Z,9.47
2019-02-26T10:18:27.901Z,7.57
2019-02-26T10:20:59.067Z,9.97
2019-02-26T10:23:32.992Z,6.97
2019-02-26T10:26:03.328Z,8.63
2019-02-26T10:28:37.281Z,8.60
2019-02-26T10:31:07.639Z,12.17
2019-02-26T10:33:40.485Z,10.03
2019-02-26T10:36:11.198Z,7.93
2019-02-26T10:38:42.581Z,7.43
2019-02-26T10:41:12.899Z,8.23
2019-02-26T10:43:43.345Z,7.53
2019-02-26T10:46:13.717Z,9.83
2019-02-26T10:48:45.657Z,8.67
2019-02-26T10:51:17.146Z,8.40
2019-02-26T10:53:47.847Z,6.73
2019-02-26T10:56:18.205Z,8.53
2019-02-26T10:58:48.839Z,7.30
2019-02-26T11:01:22.703Z,7.20
2019-02-26T11:03:52.841Z,8.00
2019-02-26T11:06:23.591Z,7.90
2019-02-26T11:08:55.723Z,8.70
2019-02-26T11:11:27.168Z,8.33
2019-02-26T11:13:57.637Z,6.20
2019-02-26T11:16:30.483Z,5.00
2019-02-26T11:19:01.982Z,5.77
2019-02-26T11:21:32.221Z,7.57
2019-02-26T11:24:03.692Z,6.37
2019-02-26T11:26:35.958Z,6.03
2019-02-26T11:29:06.749Z,7.73
2019-02-26T11:31:39.744Z,6.40
2019-02-26T11:34:11.155Z,8.43
2019-02-26T11:36:41.257Z,5.40
2019-02-26T11:39:12.172Z,6.23
2019-02-26T11:41:43.252Z,4.97
2019-02-26T11:44:19.055Z,5.90
2019-02-26T11:46:46.734Z,5.67
2019-02-26T11:49:19.477Z,12.07
2019-02-26T11:51:50.029Z,7.73
2019-02-26T11:54:20.415Z,5.63
2019-02-26T11:56:52.533Z,5.60
2019-02-26T11:59:23.338Z,9.10
2019-02-26T12:01:54.182Z,6.83
2019-02-26T12:04:25.691Z,6.77
2019-02-26T12:06:58.391Z,5.20
2019-02-26T12:09:30.033Z,6.20
2019-02-26T12:12:00.986Z,6.33
2019-02-26T12:14:34.464Z,5.07
2019-02-26T12:17:04.461Z,5.57
2019-02-26T12:19:37.033Z,6.37
2019-02-26T12:22:06.891Z,5.77
2019-02-26T12:24:37.239Z,5.63
2019-02-26T12:27:09.759Z,4.57
2019-02-26T12:29:40.164Z,4.67
2019-02-26T12:32:11.958Z,5.57
2019-02-26T12:34:44.597Z,5.53
2019-02-26T12:37:14.358Z,6.10
2019-02-26T12:39:47.463Z,4.00
2019-02-26T12:42:18.730Z,5.90
2019-02-26T12:44:49.186Z,5.03
2019-02-26T12:47:21.879Z,5.33
2019-02-26T12:49:51.637Z,4.70
2019-02-26T12:52:25.129Z,5.00
2019-02-26T12:54:57.570Z,4.87
2019-02-26T12:57:29.680Z,5.27
2019-02-26T12:59:59.488Z,3.63
2019-02-26T13:02:29.906Z,3.83
2019-02-26T13:05:00.379Z,3.80
2019-02-26T13:07:30.895Z,3.90
2019-02-26T13:10:03.835Z,4.53
2019-02-26T13:12:35.184Z,7.33
2019-02-26T13:15:09.730Z,4.50
2019-02-26T13:17:38.585Z,4.17
2019-02-26T13:20:12.351Z,4.97
2019-02-26T13:22:45.842Z,4.77
2019-02-26T13:27:48.252Z,4.10
2019-02-26T13:30:21.097Z,4.67
2019-02-26T13:32:58.063Z,3.47
2019-02-26T13:35:24.486Z,3.93
2019-02-26T13:37:55.302Z,5.40
2019-02-26T13:40:25.770Z,3.63
2019-02-26T13:45:28.952Z,3.97
2019-02-26T13:48:01.355Z,3.03
2019-02-26T13:50:31.988Z,3.57
2019-02-26T13:53:02.392Z,3.47
2019-02-26T13:55:34.010Z,4.93
2019-02-26T13:58:11.499Z,4.37
2019-02-26T14:00:36.901Z,3.73
2019-02-26T14:03:07.348Z,4.97
2019-02-26T14:05:38.409Z,4.00
2019-02-26T14:08:09.605Z,5.23
2019-02-26T14:10:40.253Z,5.07
2019-02-26T14:13:10.721Z,4.03
2019-02-26T14:15:41.252Z,4.10
2019-02-26T14:18:11.669Z,4.63
2019-02-26T14:20:42.104Z,4.80
2019-02-26T14:23:12.549Z,4.20
2019-02-26T14:25:42.946Z,4.87
2019-02-26T14:28:13.356Z,4.83
2019-02-26T14:30:43.744Z,5.60
2019-02-26T14:33:14.789Z,8.00
2019-02-26T14:35:45.196Z,4.80
2019-02-26T14:38:15.536Z,3.97
2019-02-26T14:40:45.955Z,5.27
2019-02-26T14:43:16.422Z,3.00
2019-02-26T14:45:46.801Z,3.33
2019-02-26T14:48:17.278Z,3.47
2019-02-26T14:50:48.057Z,2.97
2019-02-26T14:53:18.439Z,3.67
2019-02-26T14:55:48.944Z,3.47
2019-02-26T14:58:19.782Z,3.63
2019-02-26T15:00:57.646Z,4.07
2019-02-26T15:03:23.550Z,2.43
2019-02-26T15:05:54.003Z,3.07
2019-02-26T15:08:24.436Z,6.27
2019-02-26T15:10:54.859Z,3.43
2019-02-26T15:13:25.626Z,3.97
2019-02-26T15:15:56.103Z,7.13
2019-02-26T15:18:26.552Z,4.03
2019-02-26T15:20:57.043Z,4.03
2019-02-26T15:23:27.382Z,3.43
2019-02-26T15:25:57.855Z,3.13
2019-02-26T15:28:28.240Z,4.83
2019-02-26T15:30:58.949Z,6.63
2019-02-26T15:33:29.349Z,4.50
2019-02-26T15:35:59.730Z,3.53
2019-02-26T15:38:30.104Z,3.27
2019-02-26T15:41:00.517Z,4.00
2019-02-26T15:43:30.894Z,4.17
2019-02-26T15:46:02.735Z,5.80
2019-02-26T15:48:33.674Z,3.83
2019-02-26T15:51:13.936Z,4.43
2019-02-26T15:53:38.954Z,5.63
2019-02-26T15:56:09.338Z,4.60
2019-02-26T15:58:39.759Z,3.90
2019-02-26T16:01:12.860Z,3.97
2019-02-26T16:03:44.222Z,3.50
2019-02-26T16:06:14.746Z,4.37
2019-02-26T16:08:45.370Z,4.80
2019-02-26T16:11:15.828Z,4.10
2019-02-26T16:13:46.873Z,5.73
2019-02-26T16:16:18.102Z,5.83
2019-02-26T16:18:48.826Z,4.43
2019-02-26T16:21:19.446Z,5.00
2019-02-26T16:23:49.871Z,4.60
2019-02-26T16:26:21.706Z,7.77
2019-02-26T16:28:52.161Z,5.90
2019-02-26T16:31:22.695Z,5.47
2019-02-26T16:33:53.088Z,6.13
2019-02-26T16:36:23.780Z,12.23
2019-02-26T16:39:06.391Z,5.23
2019-02-26T16:41:42.803Z,7.10
2019-02-26T16:44:13.355Z,4.93
2019-02-26T16:46:44.024Z,4.70
2019-02-26T16:49:14.407Z,5.63
2019-02-26T16:51:44.839Z,5.87
2019-02-26T16:54:15.278Z,9.17
2019-02-26T16:56:47.191Z,6.83
2019-02-26T16:59:17.489Z,7.57
2019-02-26T17:01:48.050Z,6.07
2019-02-26T17:04:18.799Z,5.93
2019-02-26T17:06:51.538Z,6.13
2019-02-26T17:09:21.989Z,9.07
2019-02-26T17:11:52.997Z,7.60
2019-02-26T17:14:23.675Z,5.90
2019-02-26T17:16:54.196Z,6.73
2019-02-26T17:19:24.771Z,8.07
2019-02-26T17:21:55.121Z,5.97
2019-02-26T17:24:25.476Z,7.67
2019-02-26T17:26:55.868Z,6.93
2019-02-26T17:29:27.114Z,8.23
2019-02-26T17:31:57.552Z,7.60
2019-02-26T17:34:28.969Z,6.63
2019-02-26T17:36:59.403Z,6.10
2019-02-26T17:39:30.893Z,7.17
2019-02-26T17:42:01.578Z,8.20
2019-02-26T17:44:32.007Z,6.63
2019-02-26T17:47:02.386Z,19.40
2019-02-26T17:49:33.673Z,12.67
2019-02-26T17:52:06.468Z,6.40
2019-02-26T17:54:37.473Z,5.97
2019-02-26T17:57:08.009Z,5.87
2019-02-26T17:59:38.532Z,6.47
2019-02-26T18:02:09.112Z,5.40
2019-02-26T18:04:39.771Z,7.87
2019-02-26T18:07:10.521Z,6.83
2019-02-26T18:09:41.057Z,6.13
2019-02-26T18:12:11.608Z,6.37
2019-02-26T18:14:42.242Z,6.57
2019-02-26T18:17:12.669Z,6.63
2019-02-26T18:19:49.448Z,6.90
2019-02-26T18:22:21.587Z,6.10
2019-02-26T18:24:50.025Z,10.40
2019-02-26T18:27:20.762Z,9.30
2019-02-26T18:29:51.216Z,7.13
2019-02-26T18:32:21.905Z,5.70
2019-02-26T18:34:53.477Z,6.90
2019-02-26T18:37:24.070Z,6.13
2019-02-26T18:39:55.224Z,6.17
2019-02-26T18:42:26.278Z,6.23
2019-02-26T18:44:56.739Z,6.80
2019-02-26T18:47:27.342Z,5.83
2019-02-26T18:49:57.929Z,5.67
2019-02-26T18:52:28.445Z,6.37
2019-02-26T18:54:58.986Z,6.10
2019-02-26T18:57:29.397Z,7.73
2019-02-26T18:59:59.878Z,7.90
2019-02-26T19:02:30.648Z,6.63
2019-02-26T19:05:01.352Z,8.33
2019-02-26T19:07:33.951Z,6.67
2019-02-26T19:10:05.383Z,6.83
2019-02-26T19:12:35.884Z,11.13
2019-02-26T19:15:07.367Z,6.60
2019-02-26T19:17:38.296Z,6.13
2019-02-26T19:20:10.090Z,7.00
2019-02-26T19:22:40.869Z,7.67
2019-02-26T19:25:11.585Z,7.60
2019-02-26T19:27:41.957Z,6.90
2019-02-26T19:30:14.739Z,7.43
2019-02-26T19:32:47.529Z,7.83
2019-02-26T19:35:17.573Z,6.33
2019-02-26T19:37:49.550Z,7.10
2019-02-26T19:40:21.556Z,6.70
2019-02-26T19:42:52.904Z,6.30
2019-02-26T19:45:23.737Z,8.87
2019-02-26T19:47:55.949Z,7.93
2019-02-26T19:50:26.321Z,6.77
2019-02-26T19:52:57.471Z,8.07
2019-02-26T19:55:32.643Z,8.10
2019-02-26T19:58:06.539Z,8.23
2019-02-26T20:00:35.352Z,7.63
2019-02-26T20:03:06.256Z,7.17
2019-02-26T20:05:36.847Z,6.30
2019-02-26T20:08:07.657Z,10.30
2019-02-26T20:10:38.132Z,8.70
2019-02-26T20:13:12.468Z,7.73
2019-02-26T20:15:40.576Z,6.63
2019-02-26T20:18:20.065Z,8.50
2019-02-26T20:20:46.040Z,9.60
2019-02-26T20:23:16.350Z,10.07
2019-02-26T20:25:47.108Z,7.23
2019-02-26T20:28:17.784Z,8.67
2019-02-26T20:30:49.614Z,7.43
2019-02-26T20:33:20.101Z,7.53
2019-02-26T20:35:50.776Z,8.57
2019-02-26T20:38:21.203Z,9.30
2019-02-26T20:40:51.562Z,7.57
2019-02-26T20:43:21.990Z,8.07
2019-02-26T20:45:52.416Z,7.90
2019-02-26T20:48:24.011Z,9.53
2019-02-26T20:50:57.350Z,8.60
2019-02-26T20:53:28.976Z,8.90
2019-02-26T20:55:59.324Z,9.57
2019-02-26T20:58:29.813Z,8.40
2019-02-26T21:01:00.201Z,9.50
2019-02-26T21:03:30.585Z,8.57
2019-02-26T21:06:01.938Z,8.10
2019-02-26T21:08:32.522Z,10.97
2019-02-26T21:11:02.940Z,9.57
2019-02-26T21:13:35.494Z,11.13
2019-02-26T21:16:06.068Z,8.93
2019-02-26T21:18:36.587Z,8.63
2019-02-26T21:21:07.804Z,10.47
2019-02-26T21:23:38.273Z,8.00
2019-02-26T21:26:08.858Z,11.60
2019-02-26T21:28:39.410Z,8.27
2019-02-26T21:31:09.881Z,8.37
2019-02-26T21:33:40.584Z,9.07
2019-02-26T21:36:11.063Z,10.10
2019-02-26T21:38:41.808Z,9.07
2019-02-26T21:41:12.271Z,11.77
2019-02-26T21:43:46.941Z,8.93
2019-02-26T21:46:17.779Z,8.07
2019-02-26T21:48:48.309Z,11.60
2019-02-26T21:51:19.112Z,9.57
2019-02-26T21:53:49.831Z,9.27
2019-02-26T21:56:20.330Z,8.33
2019-02-26T21:58:50.883Z,8.30
2019-02-26T22:01:21.574Z,8.63
2019-02-26T22:03:52.161Z,9.83
2019-02-26T22:06:22.681Z,11.30
2019-02-26T22:08:54.915Z,9.00
2019-02-26T22:11:25.632Z,9.23
2019-02-26T22:13:56.157Z,7.97
2019-02-26T22:16:26.527Z,8.47
2019-02-26T22:18:58.215Z,7.93
2019-02-26T22:21:28.691Z,7.87
2019-02-26T22:23:59.250Z,10.03
2019-02-26T22:26:29.601Z,8.70
2019-02-26T22:29:00.483Z,9.47
2019-02-26T22:31:30.877Z,10.73
2019-02-26T22:34:01.279Z,8.80
2019-02-26T22:36:33.317Z,7.83
2019-02-26T22:39:05.526Z,9.20
2019-02-26T22:41:37.896Z,9.40
2019-02-26T22:44:08.376Z,9.93
2019-02-26T22:46:38.820Z,8.67
2019-02-26T22:49:09.832Z,8.53
2019-02-26T22:51:40.273Z,8.63
2019-02-26T22:54:10.833Z,10.17
2019-02-26T22:56:43.319Z,10.70
2019-02-26T22:59:13.820Z,9.63
2019-02-26T23:01:48.507Z,9.77
2019-02-26T23:04:19.630Z,8.83
2019-02-26T23:06:50.803Z,10.17
2019-02-26T23:09:24.241Z,8.57
2019-02-26T23:11:55.141Z,10.57
2019-02-26T23:14:27.997Z,10.50
2019-02-26T23:16:58.782Z,7.63
2019-02-26T23:19:30.287Z,10.10
2019-02-26T23:22:00.949Z,9.77
2019-02-26T23:24:32.001Z,9.13
2019-02-26T23:27:04.022Z,11.80
2019-02-26T23:29:34.486Z,9.83
2019-02-26T23:32:06.744Z,10.17
2019-02-26T23:34:37.364Z,8.77
2019-02-26T23:37:08.312Z,9.73
2019-02-26T23:39:39.057Z,9.00
2019-02-26T23:42:09.543Z,9.60
2019-02-26T23:44:39.893Z,9.63
2019-02-26T23:47:10.370Z,10.23
2019-02-26T23:49:40.948Z,11.10
2019-02-26T23:52:11.351Z,13.43
2019-02-26T23:54:41.751Z,10.23
2019-02-26T23:57:12.794Z,9.77
2019-02-26T23:59:43.179Z,11.37
